createdAt,value
2022-08-14T00:01:12.403Z,95082.56
2022-08-14T00:04:55.294Z,95083.03
2022-08-14T00:08:45.098Z,95079.53
2022-08-14T00:12:33.602Z,95070.09
2022-08-14T00:16:41.561Z,95062.06
2022-08-14T00:20:35.794Z,95062.31
2022-08-14T00:24:29.040Z,95061.00
2022-08-14T00:28:17.757Z,95066.81
2022-08-14T00:32:02.483Z,95058.31
2022-08-14T00:36:35.716Z,95056.69
2022-08-14T00:40:11.114Z,95061.44
2022-08-14T00:44:10.581Z,95046.44
2022-08-14T00:47:54.721Z,95061.25
2022-08-14T00:51:39.638Z,95055.38
2022-08-14T00:55:24.893Z,95040.47
2022-08-14T00:59:07.645Z,95033.06
2022-08-14T01:02:53.859Z,95035.25
2022-08-14T01:06:38.166Z,95034.72
2022-08-14T01:10:22.941Z,95028.31
2022-08-14T01:14:25.607Z,95032.47
2022-08-14T01:18:27.175Z,95033.16
2022-08-14T01:22:12.715Z,95021.84
2022-08-14T01:25:56.711Z,95028.34
2022-08-14T01:30:00.608Z,95022.34
2022-08-14T01:33:59.507Z,95024.44
2022-08-14T01:37:54.629Z,95011.91
2022-08-14T01:41:40.152Z,95008.88
2022-08-14T01:45:25.433Z,95003.72
2022-08-14T01:49:10.159Z,94992.81
2022-08-14T01:52:59.174Z,94977.28
2022-08-14T01:56:44.735Z,94983.50
2022-08-14T02:00:27.941Z,94968.53
2022-08-14T02:04:20.572Z,94952.75
2022-08-14T02:08:16.128Z,94950.00
2022-08-14T02:12:06.757Z,94959.25
2022-08-14T02:15:51.905Z,94955.13
2022-08-14T02:19:35.726Z,94959.94
2022-08-14T02:23:23.954Z,94956.09
2022-08-14T02:28:23.888Z,94948.41
2022-08-14T02:31:18.115Z,94938.78
2022-08-14T02:35:18.935Z,94944.19
2022-08-14T02:39:03.588Z,94939.50
2022-08-14T02:42:54.023Z,94947.91
2022-08-14T02:46:37.426Z,94943.59
2022-08-14T02:50:26.969Z,94932.47
2022-08-14T02:54:13.144Z,94931.50
2022-08-14T02:58:02.969Z,94923.88
2022-08-14T03:01:50.783Z,94920.69
2022-08-14T03:05:41.202Z,94928.78
2022-08-14T03:09:42.368Z,94926.38
2022-08-14T03:13:35.699Z,94913.84
2022-08-14T03:17:18.522Z,94923.81
2022-08-14T03:21:07.782Z,94913.59
2022-08-14T03:24:52.197Z,94900.03
2022-08-14T03:28:36.873Z,94907.78
2022-08-14T03:32:30.417Z,94898.84
2022-08-14T03:37:28.997Z,94887.81
2022-08-14T03:40:20.524Z,94900.63
2022-08-14T03:45:18.969Z,94889.03
2022-08-14T03:48:30.314Z,94893.22
2022-08-14T03:52:37.855Z,94894.78
2022-08-14T03:56:21.406Z,94895.34
2022-08-14T04:00:07.427Z,94898.22
2022-08-14T04:04:02.495Z,94891.13
2022-08-14T04:07:49.822Z,94895.63
2022-08-14T04:11:51.045Z,94893.13
2022-08-14T04:15:56.592Z,94887.06
2022-08-14T04:19:39.996Z,94887.81
2022-08-14T04:23:29.394Z,94882.22
2022-08-14T04:27:17.265Z,94880.09
2022-08-14T04:31:00.068Z,94875.50
2022-08-14T04:34:42.810Z,94879.31
2022-08-14T04:38:52.475Z,94871.47
2022-08-14T04:42:55.243Z,94859.03
2022-08-14T04:46:56.110Z,94861.38
2022-08-14T04:50:44.417Z,94854.78
2022-08-14T04:54:28.191Z,94854.03
2022-08-14T04:58:21.939Z,94855.19
2022-08-14T05:02:16.570Z,94854.94
2022-08-14T05:06:03.109Z,94852.34
2022-08-14T05:09:47.827Z,94841.03
2022-08-14T05:13:42.304Z,94837.47
2022-08-14T05:17:43.997Z,94838.59
2022-08-14T05:21:59.903Z,94842.94
2022-08-14T05:25:33.543Z,94843.63
2022-08-14T05:29:18.454Z,94842.94
2022-08-14T05:33:01.501Z,94846.47
2022-08-14T05:36:50.643Z,94836.44
2022-08-14T05:40:45.544Z,94838.63
2022-08-14T05:44:30.962Z,94835.84
2022-08-14T05:48:32.772Z,94837.25
2022-08-14T05:52:18.142Z,94836.81
2022-08-14T05:56:01.272Z,94852.84
2022-08-14T05:59:45.369Z,94841.16
2022-08-14T06:03:28.224Z,94855.59
2022-08-14T06:07:11.816Z,94847.38
2022-08-14T06:10:56.977Z,94858.91
2022-08-14T06:14:39.799Z,94863.44
2022-08-14T06:18:25.170Z,94858.41
2022-08-14T06:22:08.074Z,94858.44
2022-08-14T06:25:52.751Z,94863.78
2022-08-14T06:29:37.463Z,94862.19
2022-08-14T06:33:21.790Z,94858.50
2022-08-14T06:37:06.895Z,94857.72
2022-08-14T06:40:53.307Z,94857.78
2022-08-14T06:44:36.614Z,94852.19
2022-08-14T06:48:21.725Z,94843.66
2022-08-14T06:52:06.820Z,94834.84
2022-08-14T06:55:58.263Z,94838.31
2022-08-14T06:59:43.750Z,94836.94
2022-08-14T07:03:40.385Z,94838.25
2022-08-14T07:07:28.695Z,94832.91
2022-08-14T07:11:12.955Z,94833.94
2022-08-14T07:15:00.953Z,94826.97
2022-08-14T07:18:45.704Z,94818.38
2022-08-14T07:22:56.340Z,94815.09
2022-08-14T07:26:38.812Z,94815.56
2022-08-14T07:30:33.944Z,94798.97
2022-08-14T07:34:35.944Z,94796.22
2022-08-14T07:38:22.918Z,94781.13
2022-08-14T07:42:06.170Z,94775.16
2022-08-14T07:45:50.863Z,94780.66
2022-08-14T07:49:37.105Z,94773.84
2022-08-14T07:53:21.741Z,94766.75
2022-08-14T07:57:12.281Z,94766.97
2022-08-14T08:00:56.962Z,94757.53
2022-08-14T08:04:44.909Z,94770.53
2022-08-14T08:08:31.390Z,94769.59
2022-08-14T08:12:15.851Z,94769.47
2022-08-14T08:15:59.022Z,94773.91
2022-08-14T08:19:41.826Z,94767.63
2022-08-14T08:23:34.566Z,94764.53
2022-08-14T08:27:24.415Z,94768.44
2022-08-14T08:31:08.410Z,94768.22
2022-08-14T08:34:51.503Z,94764.00
2022-08-14T08:39:17.705Z,94772.16
2022-08-14T08:42:41.422Z,94769.13
2022-08-14T08:46:27.468Z,94774.44
2022-08-14T08:50:23.302Z,94757.38
2022-08-14T08:54:19.709Z,94763.16
2022-08-14T08:58:15.942Z,94755.03
2022-08-14T09:02:01.050Z,94745.56
2022-08-14T09:05:53.973Z,94752.13
2022-08-14T09:09:54.533Z,94744.78
2022-08-14T09:13:42.974Z,94753.53
2022-08-14T09:17:26.348Z,94745.09
2022-08-14T09:21:09.408Z,94736.69
2022-08-14T09:24:55.276Z,94744.63
2022-08-14T09:28:38.112Z,94746.44
2022-08-14T09:33:09.312Z,94748.22
2022-08-14T09:36:47.392Z,94750.81
2022-08-14T09:40:40.628Z,94739.47
2022-08-14T09:44:34.553Z,94744.75
2022-08-14T09:48:19.976Z,94741.47
2022-08-14T09:52:32.863Z,94741.94
2022-08-14T09:56:24.366Z,94734.31
2022-08-14T10:00:29.288Z,94742.28
2022-08-14T10:04:33.120Z,94726.34
2022-08-14T10:08:26.567Z,94721.09
2022-08-14T10:12:16.438Z,94715.94
2022-08-14T10:16:01.846Z,94713.44
2022-08-14T10:19:50.251Z,94720.59
2022-08-14T10:23:43.947Z,94715.41
2022-08-14T10:27:27.289Z,94713.81
2022-08-14T10:31:25.720Z,94713.59
2022-08-14T10:35:14.167Z,94701.13
2022-08-14T10:38:59.213Z,94690.88
2022-08-14T10:42:43.791Z,94695.97
2022-08-14T10:47:40.874Z,94686.59
2022-08-14T10:50:34.477Z,94675.88
2022-08-14T10:54:36.170Z,94667.31
2022-08-14T10:58:34.173Z,94666.75
2022-08-14T11:02:45.028Z,94655.78
2022-08-14T11:06:27.257Z,94664.16
2022-08-14T11:10:12.331Z,94662.56
2022-08-14T11:13:57.408Z,94665.75
2022-08-14T11:17:40.166Z,94641.84
2022-08-14T11:21:34.242Z,94638.81
2022-08-14T11:25:17.854Z,94631.19
2022-08-14T11:29:01.666Z,94622.13
2022-08-14T11:32:48.636Z,94623.13
2022-08-14T11:37:02.467Z,94610.03
2022-08-14T11:40:37.559Z,94608.97
2022-08-14T11:44:21.065Z,94599.94
2022-08-14T11:49:03.835Z,94592.03
2022-08-14T11:52:40.290Z,94593.63
2022-08-14T11:56:25.727Z,94586.66
2022-08-14T12:00:19.942Z,94596.78
2022-08-14T12:04:32.603Z,94591.25
2022-08-14T12:08:24.306Z,94586.47
2022-08-14T12:12:16.246Z,94585.00
2022-08-14T12:16:22.787Z,94575.13
2022-08-14T12:20:09.353Z,94563.78
2022-08-14T12:24:06.057Z,94561.69
2022-08-14T12:27:54.711Z,94560.38
2022-08-14T12:31:44.481Z,94554.63
2022-08-14T12:35:40.345Z,94555.81
2022-08-14T12:39:24.536Z,94560.19
2022-08-14T12:43:08.941Z,94548.31
2022-08-14T12:47:07.323Z,94540.69
2022-08-14T12:50:52.253Z,94547.97
2022-08-14T12:54:37.042Z,94536.13
2022-08-14T12:58:51.908Z,94520.97
2022-08-14T13:02:39.347Z,94516.41
2022-08-14T13:06:27.270Z,94515.78
2022-08-14T13:10:47.316Z,94525.31
2022-08-14T13:14:24.718Z,94515.41
2022-08-14T13:18:13.327Z,94508.66
2022-08-14T13:22:09.924Z,94502.25
2022-08-14T13:25:56.026Z,94504.38
2022-08-14T13:29:46.591Z,94495.75
2022-08-14T13:33:31.662Z,94482.44
2022-08-14T13:37:17.235Z,94479.97
2022-08-14T13:41:01.711Z,94470.28
2022-08-14T13:44:46.070Z,94471.94
2022-08-14T13:48:33.227Z,94471.06
2022-08-14T13:52:51.628Z,94455.31
2022-08-14T13:56:36.623Z,94454.47
2022-08-14T14:00:21.714Z,94454.63
2022-08-14T14:04:19.642Z,94453.25
2022-08-14T14:08:02.905Z,94452.66
2022-08-14T14:11:47.955Z,94442.63
2022-08-14T14:15:57.971Z,94434.75
2022-08-14T14:19:43.305Z,94430.69
2022-08-14T14:23:27.711Z,94435.75
2022-08-14T14:27:39.586Z,94432.88
2022-08-14T14:31:29.674Z,94429.19
2022-08-14T14:35:15.415Z,94421.75
2022-08-14T14:39:01.157Z,94429.25
2022-08-14T14:42:48.828Z,94413.78
2022-08-14T14:46:37.840Z,94419.78
2022-08-14T14:50:25.058Z,94406.88
2022-08-14T14:54:08.803Z,94405.66
2022-08-14T14:57:57.286Z,94406.66
2022-08-14T15:01:40.248Z,94397.47
2022-08-14T15:05:24.730Z,94393.66
2022-08-14T15:09:11.062Z,94400.06
2022-08-14T15:13:04.316Z,94395.72
2022-08-14T15:16:47.406Z,94389.56
2022-08-14T15:20:33.429Z,94386.88
2022-08-14T15:24:20.953Z,94386.50
2022-08-14T15:28:13.057Z,94385.03
2022-08-14T15:32:04.225Z,94380.66
2022-08-14T15:35:52.042Z,94376.41
2022-08-14T15:39:45.681Z,94373.81
2022-08-14T15:43:31.319Z,94377.47
2022-08-14T15:47:22.679Z,94367.88
2022-08-14T15:51:11.339Z,94367.25
2022-08-14T15:54:55.550Z,94373.88
2022-08-14T15:58:40.389Z,94377.13
2022-08-14T16:02:24.580Z,94360.28
2022-08-14T16:06:15.591Z,94368.59
2022-08-14T16:10:27.754Z,94365.91
2022-08-14T16:14:06.762Z,94364.38
2022-08-14T16:17:50.179Z,94355.88
2022-08-14T16:21:33.537Z,94363.13
2022-08-14T16:25:34.804Z,94357.75
2022-08-14T16:29:20.536Z,94352.78
2022-08-14T16:33:06.813Z,94356.28
2022-08-14T16:36:50.810Z,94355.72
2022-08-14T16:40:42.972Z,94360.56
2022-08-14T16:44:41.028Z,94361.78
2022-08-14T16:48:55.192Z,94366.78
2022-08-14T16:52:44.373Z,94354.91
2022-08-14T16:56:36.985Z,94349.53
2022-08-14T17:00:29.848Z,94355.94
2022-08-14T17:04:24.706Z,94350.25
2022-08-14T17:08:41.676Z,94351.72
2022-08-14T17:12:33.651Z,94345.19
2022-08-14T17:16:24.276Z,94344.88
2022-08-14T17:20:54.695Z,94353.81
2022-08-14T17:24:57.230Z,94360.28
2022-08-14T17:28:52.622Z,94359.06
2022-08-14T17:32:44.339Z,94360.69
2022-08-14T17:36:30.602Z,94358.03
2022-08-14T17:40:16.502Z,94358.09
2022-08-14T17:44:11.636Z,94362.59
2022-08-14T17:47:59.315Z,94360.81
2022-08-14T17:52:03.747Z,94366.13
2022-08-14T17:56:02.913Z,94360.28
2022-08-14T17:59:48.347Z,94358.31
2022-08-14T18:03:50.848Z,94355.09
2022-08-14T18:07:59.763Z,94362.41
2022-08-14T18:11:45.930Z,94357.81
2022-08-14T18:15:36.882Z,94360.13
2022-08-14T18:19:23.026Z,94370.78
2022-08-14T18:23:12.825Z,94376.31
2022-08-14T18:27:01.774Z,94374.06
2022-08-14T18:30:58.265Z,94384.16
2022-08-14T18:34:50.939Z,94386.66
2022-08-14T18:38:55.092Z,94389.09
2022-08-14T18:42:46.793Z,94389.16
2022-08-14T18:46:59.781Z,94397.75
2022-08-14T18:50:35.213Z,94397.03
2022-08-14T18:54:33.042Z,94400.84
2022-08-14T18:58:30.953Z,94401.00
2022-08-14T19:02:42.946Z,94405.16
2022-08-14T19:06:43.396Z,94412.44
2022-08-14T19:10:37.253Z,94404.22
2022-08-14T19:14:44.883Z,94415.59
2022-08-14T19:18:38.540Z,94407.16
2022-08-14T19:22:30.227Z,94414.09
2022-08-14T19:26:36.040Z,94417.41
2022-08-14T19:30:23.336Z,94409.50
2022-08-14T19:34:07.022Z,94428.28
2022-08-14T19:37:54.862Z,94423.28
2022-08-14T19:41:40.663Z,94422.81
2022-08-14T19:45:34.869Z,94428.94
2022-08-14T19:49:23.200Z,94425.91
2022-08-14T19:53:21.947Z,94430.19
2022-08-14T19:57:05.230Z,94423.38
2022-08-14T20:00:57.145Z,94424.47
2022-08-14T20:04:47.268Z,94429.06
2022-08-14T20:09:05.849Z,94429.84
2022-08-14T20:12:58.243Z,94429.50
2022-08-14T20:16:43.176Z,94420.78
2022-08-14T20:20:32.092Z,94431.38
2022-08-14T20:24:30.554Z,94436.06
2022-08-14T20:28:30.072Z,94437.78
2022-08-14T20:32:14.791Z,94442.97
2022-08-14T20:35:57.614Z,94442.97
2022-08-14T20:39:45.236Z,94438.22
2022-08-14T20:43:59.642Z,94439.59
2022-08-14T20:47:48.279Z,94430.44
2022-08-14T20:51:47.486Z,94439.03
2022-08-14T20:55:45.001Z,94445.06
2022-08-14T20:59:30.355Z,94452.97
2022-08-14T21:03:34.778Z,94455.97
2022-08-14T21:07:25.644Z,94452.31
2022-08-14T21:11:21.982Z,94451.94
2022-08-14T21:15:11.084Z,94451.25
2022-08-14T21:18:56.979Z,94464.31
2022-08-14T21:22:44.992Z,94463.56
2022-08-14T21:26:51.474Z,94465.63
2022-08-14T21:30:51.241Z,94476.19
2022-08-14T21:34:37.465Z,94467.03
2022-08-14T21:38:20.353Z,94460.16
2022-08-14T21:42:14.136Z,94464.41
2022-08-14T21:46:00.299Z,94460.16
2022-08-14T21:49:48.121Z,94457.59
2022-08-14T21:53:32.827Z,94450.03
2022-08-14T21:57:17.294Z,94461.47
2022-08-14T22:01:00.194Z,94468.31
2022-08-14T22:04:45.985Z,94463.94
2022-08-14T22:08:32.794Z,94479.81
2022-08-14T22:12:47.190Z,94482.22
2022-08-14T22:17:00.064Z,94479.63
2022-08-14T22:20:29.945Z,94479.03
2022-08-14T22:24:37.796Z,94486.88
2022-08-14T22:28:20.931Z,94490.25
2022-08-14T22:32:07.297Z,94481.13
2022-08-14T22:35:56.165Z,94476.75
2022-08-14T22:40:17.124Z,94471.97
2022-08-14T22:43:42.405Z,94465.41
2022-08-14T22:47:26.413Z,94471.94
2022-08-14T22:51:26.096Z,94464.22
2022-08-14T22:55:11.353Z,94463.13
2022-08-14T22:58:54.549Z,94467.97
2022-08-14T23:02:37.473Z,94460.75
2022-08-14T23:07:02.515Z,94458.94
2022-08-14T23:10:32.238Z,94458.75
2022-08-14T23:14:23.776Z,94454.69
2022-08-14T23:18:07.491Z,94453.91
2022-08-14T23:21:56.055Z,94458.66
2022-08-14T23:25:58.700Z,94454.97
2022-08-14T23:29:43.552Z,94441.59
2022-08-14T23:33:26.794Z,94445.94
2022-08-14T23:37:09.628Z,94439.50
2022-08-14T23:40:53.771Z,94438.44
2022-08-14T23:44:39.180Z,94439.00
2022-08-14T23:48:24.850Z,94436.84
2022-08-14T23:52:51.575Z,94435.25
2022-08-14T23:56:20.430Z,94433.56
